WetterOnline ( https://www.wetteronline.de )

Wetter aktuell Weißenburg

Aktuelles Wetter: Weißenburg (424m)

6-stündlich | Neueste Meldungen
Ortszeit Temperatur Wetter
Mo, 03.10. 20:00 10.4° C bewölkt
Mo, 03.10. 14:00 13.4° C leicht bewölkt
Mo, 03.10. 8:00 9.2° C wolkig
Mo, 03.10. 2:00 10.6° C bedeckt
So, 02.10. 20:00 11.8° C leichter Regen
So, 02.10. 14:00 12.4° C leichter Regen
So, 02.10. 8:00 12.3° C leichter Regen
So, 02.10. 2:00 12.1° C bedeckt
Ortszeit Temperatur Wetter
Mo, 03.10. 23:00 7.7° C bewölkt
Mo, 03.10. 22:50 7.7° C bewölkt
Mo, 03.10. 22:40 8.0° C bewölkt
Mo, 03.10. 22:30 8.3° C bewölkt
Mo, 03.10. 22:20 8.3° C bewölkt
Mo, 03.10. 22:10 8.4° C bedeckt
Mo, 03.10. 22:00 8.6° C bewölkt
Mo, 03.10. 21:30 9.1° C bedeckt
Mo, 03.10. 21:00 9.4° C bedeckt
Mo, 03.10. 20:30 9.5° C bewölkt
Mo, 03.10. 20:00 10.4° C bewölkt
Ortszeit Relative Feuchte Sichtweite
Mo, 03.10. 20:00 84% 60 km
Mo, 03.10. 14:00 66% 60 km
Mo, 03.10. 8:00 96% 13 km
Mo, 03.10. 2:00 93% 24 km
So, 02.10. 20:00 91% 28 km
So, 02.10. 14:00 94% 8 km
So, 02.10. 8:00 90% 28 km
So, 02.10. 2:00 89% 50 km
Ortszeit Relative Feuchte Sichtweite
Mo, 03.10. 23:00 96% 30 km
Mo, 03.10. 22:50 96% -
Mo, 03.10. 22:40 95% -
Mo, 03.10. 22:30 95% 35 km
Mo, 03.10. 22:20 95% -
Mo, 03.10. 22:10 95% -
Mo, 03.10. 22:00 95% 35 km
Mo, 03.10. 21:30 93% 45 km
Mo, 03.10. 21:00 92% 45 km
Mo, 03.10. 20:30 91% 50 km
Mo, 03.10. 20:00 84% 60 km
Ortszeit Niederschlagsmenge Niederschlagsart
Mo, 03.10. 20:00 0.0 l/m2 in 12 Std. -
Mo, 03.10. 14:00 0.0 l/m2 in 6 Std. -
Mo, 03.10. 8:00 0.1 l/m2 in 12 Std. -
Mo, 03.10. 2:00 0.1 l/m2 in 6 Std. Regen
So, 02.10. 20:00 14 l/m2 in 12 Std. Regen
So, 02.10. 14:00 7 l/m2 in 6 Std. Regen
So, 02.10. 8:00 1 l/m2 in 12 Std. Regen
So, 02.10. 2:00 0.3 l/m2 in 6 Std. Regen
Ortszeit Niederschlagsmenge Niederschlagsart
Mo, 03.10. 23:00 0.0 l/m2 in 1 Std. -
Mo, 03.10. 22:50 keine Meldung -
Mo, 03.10. 22:40 keine Meldung -
Mo, 03.10. 22:30 0.0 l/m2 in 1 Std. -
Mo, 03.10. 22:20 keine Meldung -
Mo, 03.10. 22:10 keine Meldung -
Mo, 03.10. 22:00 0.0 l/m2 in 1 Std. -
Mo, 03.10. 21:30 0.0 l/m2 in 1 Std. -
Mo, 03.10. 21:00 0.0 l/m2 in 1 Std. -
Mo, 03.10. 20:30 0.0 l/m2 in 1 Std. -
Mo, 03.10. 20:00 0.0 l/m2 in 1 Std. -
Ortszeit Stärke Spitze Richtung
km/h Bft. km/h Grad Sektor
Mo, 03.10. 20:00 7 2 25 280° W
Mo, 03.10. 14:00 14 3 25 290° W
Mo, 03.10. 8:00 7 2 22 300° NW
Mo, 03.10. 2:00 14 3 25 290° W
So, 02.10. 20:00 14 3 22 270° W
So, 02.10. 14:00 7 2 29 240° SW
So, 02.10. 8:00 15 3 30 230° SW
So, 02.10. 2:00 11 2 43 230° SW
Ortszeit Stärke Spitze Richtung
km/h Bft. km/h Grad Sektor
Mo, 03.10. 23:00 7 2 11 200° S
Mo, 03.10. 22:50 7 2 - 200° S
Mo, 03.10. 22:40 7 2 - 210° SW
Mo, 03.10. 22:30 7 2 7 210° SW
Mo, 03.10. 22:20 7 2 - 210° SW
Mo, 03.10. 22:10 7 2 - 200° S
Mo, 03.10. 22:00 6 1 9 200° S
Mo, 03.10. 21:30 6 1 9 190° S
Mo, 03.10. 21:00 6 1 7 180° S
Mo, 03.10. 20:30 4 1 7 180° S
Mo, 03.10. 20:00 7 2 7 280° W
Ortszeit Untergrenze Bedeckung Gattung
total tief tief mittel hoch
Mo, 03.10. 20:00 1380 m 7/8 7/8 - - -
Mo, 03.10. 14:00 870 m 3/8 3/8 - - -
Mo, 03.10. 8:00 300 m 6/8 6/8 - - -
Mo, 03.10. 2:00 360 m 8/8 8/8 - - -
So, 02.10. 20:00 1800 m 8/8 8/8 - - -
So, 02.10. 14:00 180 m 8/8 8/8 - - -
So, 02.10. 8:00 510 m 7/8 7/8 - - -
So, 02.10. 2:00 510 m 8/8 8/8 - - -
Ortszeit Bedeckungsgrad in Achtel und Wolkenuntergrenze
Mo, 03.10. 23:00 7(1200m)
Mo, 03.10. 22:50 7(1200m)
Mo, 03.10. 22:40 7
Mo, 03.10. 22:30 7(1230m)
Mo, 03.10. 22:20 7(1230m)
Mo, 03.10. 22:10 8
Mo, 03.10. 22:00 7(1260m)
Mo, 03.10. 21:30 8(1290m)
Mo, 03.10. 21:00 8(1290m)
Mo, 03.10. 20:30 6(1350m) 7(8700m) 8(9000m)
Mo, 03.10. 20:00 7(1380m) 7(9000m)
Ortszeit Luftdruck NN (hPa) Tendenz (hPa in 3 Std.)
Mo, 03.10. 20:00 1027 - 0,2
Mo, 03.10. 14:00 1027 - 0,2
Mo, 03.10. 8:00 1027 + 0,8
Mo, 03.10. 2:00 1024 + 1,5
So, 02.10. 20:00 1021 + 1,4
So, 02.10. 14:00 1019 - 0,6
So, 02.10. 8:00 1020 + 0,2
So, 02.10. 2:00 1019 + 2,1
Ortszeit Luftdruck NN (hPa) Tendenz (hPa in 3 Std.)
Mo, 03.10. 23:00 1027 - 0,1
Mo, 03.10. 22:50 1027 keine Meldung
Mo, 03.10. 22:40 1027 keine Meldung
Mo, 03.10. 22:30 1027 - 0,1
Mo, 03.10. 22:20 1027 keine Meldung
Mo, 03.10. 22:10 1027 keine Meldung
Mo, 03.10. 22:00 1027 + 0,1
Mo, 03.10. 21:30 1027 0,0
Mo, 03.10. 21:00 1027 - 0,1
Mo, 03.10. 20:30 1027 - 0,1
Mo, 03.10. 20:00 1027 - 0,2
Ortszeit Schneehöhe (cm)
Mo, 03.10. 20:00 0
Mo, 03.10. 14:00 0
Mo, 03.10. 8:00 0
Mo, 03.10. 2:00 0
So, 02.10. 20:00 0
So, 02.10. 14:00 0
So, 02.10. 8:00 0
So, 02.10. 2:00 0
Ortszeit Schneehöhe (cm)
Mo, 03.10. 23:00 0
Mo, 03.10. 22:50 0
Mo, 03.10. 22:40 0
Mo, 03.10. 22:30 0
Mo, 03.10. 22:20 0
Mo, 03.10. 22:10 0
Mo, 03.10. 22:00 0
Mo, 03.10. 21:30 0
Mo, 03.10. 21:00 0
Mo, 03.10. 20:30 0
Mo, 03.10. 20:00 0
Link zu dieser Seite / Seite empfehlen

Das Wetter in ...